Time;durP1;ratioP1;P1;durP2;ratioP2;P2;SDS_P1;SDS_P2;PMS_P1;PMS_P2;Temp;Humidity;BMP_temperature;BMP_pressure;BME280_temperature;BME280_humidity;BME280_pressure;Samples;Min_cycle;Max_cycle;Signal;HPM_P1;HPM_P2
2023/01/29 00:01:14;;;;;;;33.30;23.83;;;3.30;99.90;;;;;;5091751;28;20494;-70
2023/01/29 00:03:40;;;;;;;34.88;24.75;;;3.30;99.90;;;;;;5095001;28;20910;-70
2023/01/29 00:06:08;;;;;;;35.05;24.55;;;3.30;99.90;;;;;;5102616;28;20655;-70
2023/01/29 00:08:37;;;;;;;34.63;23.97;;;3.30;99.90;;;;;;5094290;28;20039;-70
2023/01/29 00:11:05;;;;;;;30.27;23.63;;;3.30;99.90;;;;;;5090360;28;20044;-70
2023/01/29 00:13:31;;;;;;;36.22;24.30;;;3.30;99.90;;;;;;5088086;28;20089;-70
2023/01/29 00:15:57;;;;;;;36.00;26.70;;;3.30;99.90;;;;;;5103413;28;20707;-70
2023/01/29 00:18:24;;;;;;;34.40;25.75;;;3.30;99.90;;;;;;5089051;28;20060;-70
2023/01/29 00:20:50;;;;;;;31.92;24.75;;;3.30;99.90;;;;;;5094023;28;20040;-70
2023/01/29 00:23:16;;;;;;;17.63;12.43;;;3.30;99.90;;;;;;5096661;28;20108;-70
2023/01/29 00:25:42;;;;;;;39.97;27.13;;;3.30;99.90;;;;;;5094850;28;20046;-70
2023/01/29 00:28:07;;;;;;;35.08;27.10;;;3.30;99.90;;;;;;5090531;28;20040;-70
2023/01/29 00:30:34;;;;;;;33.83;26.95;;;3.30;99.90;;;;;;5088258;28;20594;-70
2023/01/29 00:32:59;;;;;;;37.05;27.13;;;3.30;99.90;;;;;;5093184;28;20185;-70
2023/01/29 00:35:25;;;;;;;37.42;26.83;;;3.30;99.90;;;;;;5096924;28;20130;-70
2023/01/29 00:37:51;;;;;;;34.33;26.15;;;3.30;99.90;;;;;;5089523;28;20040;-70
2023/01/29 00:40:16;;;;;;;32.13;25.73;;;3.30;99.90;;;;;;5101660;28;20051;-70
2023/01/29 00:45:30;;;;;;;36.65;27.48;;;3.30;99.90;;;;;;5089135;28;20496;-70
2023/01/29 00:47:55;;;;;;;36.88;27.30;;;3.30;99.90;;;;;;5097060;28;20053;-70
2023/01/29 00:50:21;;;;;;;37.22;28.48;;;3.30;99.90;;;;;;5091553;28;20051;-70
2023/01/29 00:52:48;;;;;;;35.47;28.05;;;3.30;99.90;;;;;;5087482;28;20097;-70
2023/01/29 00:55:14;;;;;;;24.70;12.18;;;3.40;99.90;;;;;;5090292;28;20109;-70
2023/01/29 00:57:39;;;;;;;39.65;29.02;;;3.30;99.90;;;;;;5092754;28;20039;-70
2023/01/29 01:00:09;;;;;;;42.42;27.92;;;3.30;99.90;;;;;;5103868;28;20088;-70
2023/01/29 01:05:19;;;;;;;44.70;29.50;;;3.30;99.90;;;;;;5093132;28;20607;-70
2023/01/29 01:07:50;;;;;;;35.65;28.63;;;3.30;99.90;;;;;;5091938;28;20078;-70
2023/01/29 01:10:23;;;;;;;39.78;28.08;;;3.40;99.90;;;;;;5086498;28;20532;-71
2023/01/29 01:12:58;;;;;;;37.42;28.10;;;3.40;99.90;;;;;;5095834;28;20048;-70
2023/01/29 01:15:27;;;;;;;49.38;30.17;;;3.40;99.90;;;;;;5098052;28;20043;-70
2023/01/29 01:17:55;;;;;;;35.08;28.95;;;3.40;99.90;;;;;;5087630;28;20051;-70
2023/01/29 01:20:21;;;;;;;25.75;16.85;;;3.40;99.90;;;;;;5097779;28;20098;-70
2023/01/29 01:22:47;;;;;;;36.60;27.50;;;3.40;99.90;;;;;;5095436;28;20048;-70
2023/01/29 01:25:12;;;;;;;34.88;28.30;;;3.40;99.90;;;;;;5084972;28;20487;-70
2023/01/29 01:27:40;;;;;;;37.47;29.13;;;3.40;99.90;;;;;;5099096;28;20080;-70
2023/01/29 01:30:11;;;;;;;34.88;29.05;;;3.40;99.90;;;;;;5099172;28;20044;-70
2023/01/29 01:32:38;;;;;;;40.42;28.45;;;3.40;99.90;;;;;;5096795;28;20055;-70
2023/01/29 01:35:04;;;;;;;33.03;27.33;;;3.40;99.90;;;;;;5098831;28;20052;-70
2023/01/29 01:37:31;;;;;;;40.72;29.95;;;3.40;99.90;;;;;;5090350;28;20052;-70
2023/01/29 01:39:57;;;;;;;43.92;29.02;;;3.40;99.90;;;;;;5087480;28;20047;-70
2023/01/29 01:42:29;;;;;;;38.90;29.80;;;3.40;99.90;;;;;;5084910;28;20109;-70
2023/01/29 01:44:59;;;;;;;46.17;29.90;;;3.40;99.90;;;;;;5085519;28;20040;-70
2023/01/29 01:47:51;;;;;;;38.08;29.40;;;3.40;99.90;;;;;;5101162;28;20047;-70
2023/01/29 01:50:25;;;;;;;39.88;31.45;;;3.40;99.90;;;;;;5090685;28;20059;-70
2023/01/29 01:52:58;;;;;;;46.05;29.60;;;3.40;99.90;;;;;;5087220;28;20126;-71
2023/01/29 01:55:27;;;;;;;38.63;29.88;;;3.40;99.90;;;;;;5085676;28;20040;-70
2023/01/29 01:58:04;;;;;;;45.20;31.77;;;3.40;99.90;;;;;;5094366;28;20516;-70
2023/01/29 02:00:30;;;;;;;39.78;28.58;;;3.50;99.90;;;;;;5092406;28;20043;-70
2023/01/29 02:11:30;;;;;;;40.25;31.25;;;3.50;99.90;;;;;;5090542;28;20052;-70
2023/01/29 02:13:58;;;;;;;43.58;31.10;;;3.50;99.90;;;;;;5108987;28;20044;-71
2023/01/29 02:16:24;;;;;;;39.70;30.73;;;3.50;99.90;;;;;;5095221;28;20043;-70
2023/01/29 02:18:50;;;;;;;50.15;33.90;;;3.50;99.90;;;;;;5090418;28;20848;-70
2023/01/29 02:21:38;;;;;;;39.03;31.70;;;3.50;99.90;;;;;;5092319;28;20047;-70
2023/01/29 02:24:36;;;;;;;39.13;29.98;;;3.50;99.90;;;;;;5101841;28;20040;-70
2023/01/29 02:27:34;;;;;;;43.90;30.80;;;3.50;99.90;;;;;;5104868;28;20043;-70
2023/01/29 02:30:23;;;;;;;;;;;3.50;99.90;;;;;;5094424;28;20052;-70
2023/01/29 02:33:21;;;;;;;56.15;31.70;;;3.50;99.90;;;;;;5059360;28;19988;-70
2023/01/29 02:36:04;;;;;;;40.95;29.67;;;3.50;99.90;;;;;;5090916;28;20125;-70
2023/01/29 02:38:54;;;;;;;41.65;30.50;;;3.50;99.90;;;;;;5096608;28;20043;-70
2023/01/29 02:41:26;;;;;;;42.63;31.42;;;3.50;99.90;;;;;;5100506;28;20526;-71
2023/01/29 02:44:19;;;;;;;43.42;31.85;;;3.50;99.90;;;;;;5089513;28;20048;-70
2023/01/29 02:46:55;;;;;;;41.05;31.55;;;3.50;99.90;;;;;;5095737;28;20039;-70
2023/01/29 02:49:53;;;;;;;36.80;29.13;;;3.50;99.90;;;;;;5095509;28;20500;-70
2023/01/29 02:52:25;;;;;;;39.95;31.50;;;3.50;99.90;;;;;;5088336;28;20060;-70
2023/01/29 02:54:58;;;;;;;50.00;32.40;;;3.60;99.90;;;;;;5097509;28;20040;-71
2023/01/29 02:57:33;;;;;;;43.38;30.65;;;3.60;99.90;;;;;;5106250;28;20044;-70
2023/01/29 03:00:19;;;;;;;42.00;31.92;;;3.50;99.90;;;;;;5108922;28;20126;-70
2023/01/29 03:02:56;;;;;;;40.78;31.60;;;3.60;99.90;;;;;;5089648;28;20121;-71
2023/01/29 03:05:42;;;;;;;41.90;31.80;;;3.60;99.90;;;;;;5103677;28;20132;-70
2023/01/29 03:08:14;;;;;;;41.90;32.08;;;3.60;99.90;;;;;;5094607;28;20058;-71
2023/01/29 03:10:50;;;;;;;43.95;32.72;;;3.60;99.90;;;;;;5091833;28;20043;-70
2023/01/29 03:13:37;;;;;;;42.25;30.88;;;3.60;99.90;;;;;;5093297;28;20782;-70
2023/01/29 03:16:18;;;;;;;41.80;31.92;;;3.60;99.90;;;;;;5093599;28;20043;-70
2023/01/29 03:18:50;;;;;;;49.67;33.75;;;3.60;99.90;;;;;;5091588;28;20382;-70
2023/01/29 03:21:53;;;;;;;41.67;33.03;;;3.60;99.90;;;;;;5091646;28;20032;-70
2023/01/29 03:33:22;;;;;;;42.10;31.77;;;3.50;99.90;;;;;;5102753;28;20579;-70
2023/01/29 03:35:49;;;;;;;;;;;3.50;99.90;;;;;;5095503;28;20052;-71
2023/01/29 03:38:15;;;;;;;46.35;32.75;;;3.50;99.90;;;;;;5090180;28;20005;-70
2023/01/29 03:41:01;;;;;;;43.15;32.03;;;3.50;99.90;;;;;;5087766;28;20044;-70
2023/01/29 03:43:46;;;;;;;41.00;30.77;;;3.50;99.90;;;;;;5098318;28;20055;-71
2023/01/29 03:46:28;;;;;;;50.83;33.38;;;3.50;99.90;;;;;;5088215;28;20084;-70
2023/01/29 03:49:07;;;;;;;40.00;31.70;;;3.50;99.90;;;;;;5091100;28;20055;-70
2023/01/29 03:51:40;;;;;;;;;;;3.50;99.90;;;;;;5101828;28;20052;-71
2023/01/29 03:54:25;;;;;;;41.22;30.65;;;3.50;99.90;;;;;;5090124;28;19924;-71
2023/01/29 03:57:01;;;;;;;37.97;31.48;;;3.50;99.90;;;;;;5091431;28;20075;-70
2023/01/29 03:59:35;;;;;;;40.40;30.58;;;3.50;99.90;;;;;;5095961;28;20206;-70
2023/01/29 04:02:14;;;;;;;45.13;29.83;;;3.50;99.90;;;;;;5099002;28;20048;-70
2023/01/29 04:04:43;;;;;;;37.65;30.58;;;3.50;99.90;;;;;;5099435;28;20051;-70
2023/01/29 04:07:23;;;;;;;42.47;31.27;;;3.50;99.90;;;;;;5087196;28;20094;-70
2023/01/29 04:10:10;;;;;;;47.40;33.15;;;3.50;99.90;;;;;;5102075;28;20067;-70
2023/01/29 04:12:41;;;;;;;38.88;31.00;;;3.50;99.90;;;;;;5096868;28;20044;-70
2023/01/29 04:15:11;;;;;;;42.35;32.50;;;3.50;99.90;;;;;;5094384;28;20044;-70
2023/01/29 04:17:40;;;;;;;39.72;29.92;;;3.50;99.90;;;;;;5087692;28;20063;-70
2023/01/29 04:20:07;;;;;;;40.97;31.88;;;3.50;99.90;;;;;;5104416;28;20047;-70
2023/01/29 04:22:37;;;;;;;46.20;33.47;;;3.60;99.90;;;;;;5096172;28;20055;-71
2023/01/29 04:25:08;;;;;;;33.97;28.45;;;3.60;99.90;;;;;;5087407;28;20111;-70
2023/01/29 04:28:01;;;;;;;44.28;32.03;;;3.60;99.90;;;;;;5102930;28;20058;-71
2023/01/29 04:30:32;;;;;;;43.45;31.88;;;3.60;99.90;;;;;;5092308;28;20052;-71
2023/01/29 04:33:18;;;;;;;41.50;29.98;;;3.60;99.90;;;;;;5088017;28;20524;-70
2023/01/29 04:36:10;;;;;;;45.83;31.48;;;3.60;99.90;;;;;;5094026;28;20405;-71
2023/01/29 04:39:14;;;;;;;42.95;31.42;;;3.60;99.90;;;;;;5089762;28;20059;-70
2023/01/29 04:41:53;;;;;;;40.72;32.45;;;3.60;99.90;;;;;;5093185;28;20083;-70
2023/01/29 04:44:37;;;;;;;45.78;32.25;;;3.60;99.90;;;;;;5087730;28;20048;-71
2023/01/29 04:47:45;;;;;;;43.63;31.55;;;3.60;99.90;;;;;;5093569;28;20096;-70
2023/01/29 04:50:35;;;;;;;45.40;33.28;;;3.60;99.90;;;;;;5091934;28;20056;-71
2023/01/29 04:53:23;;;;;;;47.63;33.13;;;3.60;99.90;;;;;;5090750;28;20043;-71
2023/01/29 04:55:50;;;;;;;44.97;34.47;;;3.60;99.90;;;;;;5101402;28;20047;-70
2023/01/29 04:58:38;;;;;;;42.13;32.20;;;3.60;99.90;;;;;;5089874;28;20470;-71
2023/01/29 05:01:07;;;;;;;49.70;33.78;;;3.60;99.90;;;;;;5087272;28;20105;-70
2023/01/29 05:03:36;;;;;;;47.20;34.58;;;3.60;99.90;;;;;;5096775;28;20075;-71
2023/01/29 05:06:03;;;;;;;41.60;31.80;;;3.60;99.90;;;;;;5087567;28;20091;-71
2023/01/29 05:08:31;;;;;;;45.80;33.78;;;3.60;99.90;;;;;;5095201;28;20048;-71
2023/01/29 05:10:59;;;;;;;47.65;35.47;;;3.60;99.90;;;;;;5098995;28;20132;-70
2023/01/29 05:13:28;;;;;;;54.75;37.20;;;3.60;99.90;;;;;;5103192;28;20071;-71
2023/01/29 05:16:06;;;;;;;53.42;37.05;;;3.60;99.90;;;;;;5103336;28;20052;-71
2023/01/29 05:18:33;;;;;;;50.47;35.65;;;3.70;99.90;;;;;;5094613;28;20147;-71
2023/01/29 05:21:03;;;;;;;57.75;37.05;;;3.60;99.90;;;;;;5099556;28;20480;-70
2023/01/29 05:23:29;;;;;;;46.03;36.30;;;3.70;99.90;;;;;;5101918;28;20051;-71
2023/01/29 05:25:56;;;;;;;51.08;34.83;;;3.70;99.90;;;;;;5089987;28;20047;-70
2023/01/29 05:28:22;;;;;;;48.53;37.33;;;3.70;99.90;;;;;;5100224;28;20085;-70
2023/01/29 05:30:50;;;;;;;46.03;36.28;;;3.70;99.90;;;;;;5105456;28;20505;-70
2023/01/29 05:33:22;;;;;;;43.67;24.23;;;3.70;99.90;;;;;;5097265;28;20044;-71
2023/01/29 05:35:48;;;;;;;45.47;32.63;;;3.70;99.90;;;;;;5092343;28;20497;-70
2023/01/29 05:38:15;;;;;;;49.67;37.95;;;3.70;99.90;;;;;;5104036;28;20071;-71
2023/01/29 05:40:43;;;;;;;47.55;36.50;;;3.70;99.90;;;;;;5110116;28;20036;-70
2023/01/29 05:43:16;;;;;;;46.58;35.78;;;3.70;99.90;;;;;;5103047;28;20051;-70
2023/01/29 05:45:50;;;;;;;55.92;37.38;;;3.70;99.90;;;;;;5091588;28;20059;-71
2023/01/29 05:48:15;;;;;;;47.92;36.15;;;3.70;99.90;;;;;;5104007;28;20047;-71
2023/01/29 05:50:41;;;;;;;49.58;37.70;;;3.70;99.90;;;;;;5108756;28;20397;-70
2023/01/29 05:53:08;;;;;;;52.53;38.85;;;3.70;99.90;;;;;;5101759;28;20059;-71
2023/01/29 05:55:33;;;;;;;61.15;40.50;;;3.80;99.90;;;;;;5104301;28;20067;-71
2023/01/29 05:57:59;;;;;;;47.55;36.85;;;3.80;99.90;;;;;;5094243;28;20608;-70
2023/01/29 06:00:25;;;;;;;52.15;38.42;;;3.80;99.90;;;;;;5091880;28;20043;-70
2023/01/29 06:02:51;;;;;;;50.88;39.58;;;3.80;99.90;;;;;;5099671;28;20048;-70
2023/01/29 06:05:16;;;;;;;50.83;38.22;;;3.80;99.90;;;;;;5096861;28;20140;-70
2023/01/29 06:07:44;;;;;;;50.97;38.10;;;3.80;99.90;;;;;;5104806;28;20130;-70
2023/01/29 06:10:13;;;;;;;49.28;37.55;;;3.80;99.90;;;;;;5096294;28;20562;-70
2023/01/29 06:12:39;;;;;;;47.35;36.80;;;3.80;99.90;;;;;;5100620;28;20070;-71
2023/01/29 06:15:05;;;;;;;48.35;38.85;;;3.80;99.90;;;;;;5097101;28;20043;-70
2023/01/29 06:17:31;;;;;;;51.70;37.33;;;3.70;99.90;;;;;;5094338;28;20048;-70
2023/01/29 06:19:56;;;;;;;52.10;39.90;;;3.70;99.90;;;;;;5100417;28;20039;-70
2023/01/29 06:22:22;;;;;;;53.28;39.38;;;3.70;99.90;;;;;;5098643;28;20048;-70
2023/01/29 06:24:48;;;;;;;46.80;37.70;;;3.70;99.90;;;;;;5091909;28;20048;-70
2023/01/29 06:27:13;;;;;;;52.75;38.63;;;3.70;99.90;;;;;;5097451;28;20051;-70
2023/01/29 06:29:39;;;;;;;57.88;41.70;;;3.70;99.90;;;;;;5101735;28;20079;-70
2023/01/29 06:32:05;;;;;;;52.42;39.30;;;3.70;99.90;;;;;;5105251;28;20047;-71
2023/01/29 06:34:30;;;;;;;54.85;40.92;;;3.70;99.90;;;;;;5093776;28;20470;-71
2023/01/29 06:36:57;;;;;;;60.25;41.03;;;3.70;99.90;;;;;;5098603;28;20059;-70
2023/01/29 06:39:23;;;;;;;53.78;39.75;;;3.70;99.90;;;;;;5100939;28;20802;-71
2023/01/29 06:41:48;;;;;;;49.47;37.75;;;3.70;99.90;;;;;;5107029;28;20048;-70
2023/01/29 06:44:14;;;;;;;55.35;39.47;;;3.70;99.90;;;;;;5103142;28;20043;-71
2023/01/29 06:46:40;;;;;;;49.33;40.22;;;3.80;99.90;;;;;;5097708;28;20067;-71
2023/01/29 06:49:05;;;;;;;52.67;39.83;;;3.80;99.90;;;;;;5099442;28;20040;-71
2023/01/29 06:51:32;;;;;;;51.85;38.90;;;3.70;99.90;;;;;;5102545;28;20051;-71
2023/01/29 06:53:57;;;;;;;53.15;38.70;;;3.70;99.90;;;;;;5089726;28;20074;-71
2023/01/29 06:56:23;;;;;;;50.05;39.50;;;3.70;99.90;;;;;;5100696;28;20456;-71
2023/01/29 06:58:49;;;;;;;53.83;38.55;;;3.80;99.90;;;;;;5090548;28;20048;-71
2023/01/29 07:01:15;;;;;;;54.15;40.40;;;3.70;99.90;;;;;;5095191;28;20631;-71
2023/01/29 07:03:41;;;;;;;54.65;40.92;;;3.80;99.90;;;;;;5093326;28;20079;-71
2023/01/29 07:06:07;;;;;;;53.10;38.90;;;3.80;99.90;;;;;;5106354;28;20123;-71
2023/01/29 07:08:39;;;;;;;57.10;39.72;;;3.70;99.90;;;;;;5093463;28;20078;-71
2023/01/29 07:11:05;;;;;;;51.53;40.22;;;3.80;99.90;;;;;;5087497;28;20484;-70
2023/01/29 07:13:31;;;;;;;52.35;38.88;;;3.70;99.90;;;;;;5103677;28;20058;-70
2023/01/29 07:16:01;;;;;;;51.15;39.67;;;3.80;99.90;;;;;;5105873;28;20085;-70
2023/01/29 07:18:28;;;;;;;47.42;38.03;;;3.80;99.90;;;;;;5100202;28;20142;-74
2023/01/29 07:20:54;;;;;;;52.63;40.58;;;3.80;99.90;;;;;;5107596;28;20461;-70
2023/01/29 07:23:21;;;;;;;55.90;41.20;;;3.80;99.90;;;;;;5088997;28;20147;-70
2023/01/29 07:25:48;;;;;;;60.67;40.15;;;3.80;99.90;;;;;;5099015;28;20577;-70
2023/01/29 07:28:19;;;;;;;56.03;41.15;;;3.80;99.90;;;;;;5091480;28;20118;-70
2023/01/29 07:30:44;;;;;;;51.40;41.97;;;3.80;99.90;;;;;;5100422;28;20132;-70
2023/01/29 07:33:11;;;;;;;52.67;40.28;;;3.80;99.90;;;;;;5084138;28;20071;-70
2023/01/29 07:35:39;;;;;;;55.80;42.72;;;3.70;99.90;;;;;;5104393;28;20051;-70
2023/01/29 07:38:06;;;;;;;52.38;40.90;;;3.80;99.90;;;;;;5099560;28;20051;-70
2023/01/29 07:40:32;;;;;;;53.35;40.30;;;3.80;99.90;;;;;;5099704;28;20063;-70
2023/01/29 07:43:00;;;;;;;49.70;40.97;;;3.80;99.90;;;;;;5099497;28;20039;-71
2023/01/29 07:45:27;;;;;;;47.72;39.00;;;3.70;99.90;;;;;;5088572;28;20059;-71
2023/01/29 07:47:54;;;;;;;54.05;41.97;;;3.70;99.90;;;;;;5091345;28;20070;-71
2023/01/29 07:50:21;;;;;;;53.58;40.90;;;3.80;99.90;;;;;;5094752;28;20055;-71
2023/01/29 07:52:46;;;;;;;55.33;41.35;;;3.80;99.90;;;;;;5094564;28;20051;-71
2023/01/29 07:55:12;;;;;;;56.22;42.75;;;3.70;99.90;;;;;;5093547;28;20048;-71
2023/01/29 07:57:38;;;;;;;53.45;42.13;;;3.80;99.90;;;;;;5090198;28;20039;-71
2023/01/29 08:00:04;;;;;;;56.13;42.22;;;3.80;99.90;;;;;;5105011;28;20541;-71
2023/01/29 08:02:29;;;;;;;56.92;40.53;;;3.80;99.90;;;;;;5103850;28;20188;-71
2023/01/29 08:04:55;;;;;;;63.78;44.15;;;3.80;99.90;;;;;;5099533;28;20047;-71
2023/01/29 08:07:21;;;;;;;55.75;42.40;;;3.80;99.90;;;;;;5099406;28;20047;-71
2023/01/29 08:09:46;;;;;;;60.17;45.22;;;3.80;99.90;;;;;;5099718;28;20035;-71
2023/01/29 08:12:13;;;;;;;56.10;42.08;;;3.80;99.90;;;;;;5092788;28;20120;-71
2023/01/29 08:14:39;;;;;;;54.03;42.97;;;3.80;99.90;;;;;;5100677;28;20441;-71
2023/01/29 08:17:05;;;;;;;58.00;42.17;;;3.80;99.90;;;;;;5100378;28;20039;-71
2023/01/29 08:19:31;;;;;;;59.13;43.85;;;3.80;99.90;;;;;;5102062;28;20043;-71
2023/01/29 08:21:56;;;;;;;52.58;42.40;;;3.80;99.90;;;;;;5096477;28;20420;-71
2023/01/29 08:24:22;;;;;;;51.80;42.38;;;3.80;99.90;;;;;;5103641;28;20039;-71
2023/01/29 08:26:48;;;;;;;57.60;42.95;;;3.90;99.90;;;;;;5103027;28;20480;-71
2023/01/29 08:29:13;;;;;;;54.60;41.63;;;3.90;99.90;;;;;;5101461;28;20477;-71
2023/01/29 08:31:39;;;;;;;58.15;43.25;;;3.90;99.90;;;;;;5104422;28;20468;-71
2023/01/29 08:34:05;;;;;;;55.70;42.42;;;3.90;99.90;;;;;;5097103;28;20105;-71
2023/01/29 08:36:31;;;;;;;61.30;44.65;;;3.90;99.90;;;;;;5102937;28;20428;-71
2023/01/29 08:38:57;;;;;;;57.85;42.28;;;3.90;99.90;;;;;;5100153;28;20100;-71
2023/01/29 08:41:22;;;;;;;54.72;42.70;;;3.90;99.90;;;;;;5094276;28;20058;-71
2023/01/29 08:43:48;;;;;;;57.13;43.33;;;4.00;99.90;;;;;;5092375;28;20494;-71
2023/01/29 08:46:13;;;;;;;56.63;42.78;;;4.00;99.90;;;;;;5101977;28;20469;-71
2023/01/29 08:48:40;;;;;;;66.47;42.85;;;4.00;99.90;;;;;;5097916;28;20130;-71
2023/01/29 08:51:06;;;;;;;53.25;41.72;;;4.00;99.90;;;;;;5092955;28;20044;-71
2023/01/29 08:53:32;;;;;;;59.35;42.53;;;4.00;99.90;;;;;;5102401;28;20554;-71
2023/01/29 08:55:57;;;;;;;58.58;43.63;;;4.10;99.90;;;;;;5088841;28;20085;-70
2023/01/29 08:58:23;;;;;;;53.30;43.13;;;4.10;99.90;;;;;;5090476;28;20036;-71
2023/01/29 09:00:48;;;;;;;54.88;40.85;;;4.10;99.90;;;;;;5096504;28;20055;-71
2023/01/29 09:03:14;;;;;;;56.15;42.25;;;4.10;99.90;;;;;;5104719;28;20047;-71
2023/01/29 09:05:41;;;;;;;60.53;44.88;;;4.20;99.90;;;;;;5096578;28;20105;-71
2023/01/29 09:08:09;;;;;;;58.63;42.47;;;4.20;99.90;;;;;;5103712;28;20079;-71
2023/01/29 09:10:34;;;;;;;62.00;45.38;;;4.20;99.90;;;;;;5103308;28;20047;-71
2023/01/29 09:13:00;;;;;;;56.60;42.63;;;4.30;99.90;;;;;;5086494;28;20040;-71
2023/01/29 09:15:26;;;;;;;63.58;42.38;;;4.30;99.90;;;;;;5093086;28;20102;-71
2023/01/29 09:17:52;;;;;;;55.42;40.88;;;4.30;99.90;;;;;;5093231;28;20043;-71
2023/01/29 09:20:18;;;;;;;55.40;39.60;;;4.40;99.90;;;;;;5097896;28;20497;-71
2023/01/29 09:22:46;;;;;;;53.28;40.90;;;4.40;99.90;;;;;;5092863;28;20047;-71
2023/01/29 09:25:12;;;;;;;49.63;40.47;;;4.40;99.90;;;;;;5086473;28;20135;-71
2023/01/29 09:27:38;;;;;;;55.63;40.92;;;4.50;99.90;;;;;;5099669;28;20058;-71
2023/01/29 09:30:05;;;;;;;62.13;42.10;;;4.50;99.90;;;;;;5096415;28;20049;-71
2023/01/29 09:32:32;;;;;;;57.33;41.30;;;4.50;99.90;;;;;;5084901;28;20640;-71
2023/01/29 09:34:58;;;;;;;56.08;41.88;;;4.60;99.90;;;;;;5089502;28;20055;-71
2023/01/29 09:37:24;;;;;;;52.83;39.42;;;4.60;99.90;;;;;;5097699;28;20051;-71
2023/01/29 09:39:50;;;;;;;54.08;41.15;;;4.60;99.90;;;;;;5094064;28;20047;-71
2023/01/29 09:42:35;;;;;;;56.67;40.60;;;4.70;99.90;;;;;;5100280;28;20048;-71
2023/01/29 09:45:16;;;;;;;54.88;39.20;;;4.70;99.90;;;;;;5093410;28;20048;-71
2023/01/29 09:47:43;;;;;;;52.63;39.28;;;4.70;99.90;;;;;;5098247;28;20131;-71
2023/01/29 09:50:24;;;;;;;59.33;43.28;;;4.70;99.90;;;;;;5086256;28;20036;-71
2023/01/29 09:52:57;;;;;;;52.38;38.95;;;4.80;99.90;;;;;;5078686;28;20039;-71
2023/01/29 09:55:27;;;;;;;53.78;41.15;;;4.80;99.90;;;;;;5096692;28;20439;-71
2023/01/29 09:58:25;;;;;;;53.03;39.33;;;4.80;99.90;;;;;;5106174;28;20046;-71
2023/01/29 10:01:02;;;;;;;52.70;40.13;;;4.80;99.90;;;;;;5106232;28;20126;-71
2023/01/29 10:03:34;;;;;;;52.13;39.45;;;4.80;99.90;;;;;;5093531;28;20508;-71
2023/01/29 10:06:15;;;;;;;61.60;40.40;;;4.90;99.90;;;;;;5091613;28;20847;-71
2023/01/29 10:08:59;;;;;;;55.53;41.28;;;4.90;99.90;;;;;;5093541;28;20054;-71
2023/01/29 10:11:50;;;;;;;53.97;42.35;;;4.90;99.90;;;;;;5090105;28;20052;-71
2023/01/29 10:14:47;;;;;;;54.03;40.55;;;5.00;99.90;;;;;;5095532;28;20108;-71
2023/01/29 10:17:34;;;;;;;53.95;40.90;;;5.00;99.90;;;;;;5100191;28;20081;-71
2023/01/29 10:20:21;;;;;;;60.65;40.55;;;5.00;99.90;;;;;;5100084;28;20052;-70
2023/01/29 10:22:53;;;;;;;54.78;43.42;;;5.00;99.90;;;;;;5093613;28;20434;-70
2023/01/29 10:25:21;;;;;;;56.63;41.00;;;5.00;99.90;;;;;;5099543;28;20044;-71
2023/01/29 10:27:55;;;;;;;52.92;40.22;;;5.00;99.90;;;;;;5108177;27;20086;-71
2023/01/29 10:30:30;;;;;;;49.38;38.42;;;5.10;99.90;;;;;;5103937;28;20527;-71
2023/01/29 10:33:01;;;;;;;51.15;38.53;;;5.10;99.90;;;;;;5101648;28;20651;-71
2023/01/29 10:35:36;;;;;;;53.92;39.45;;;5.10;99.90;;;;;;5108876;28;20150;-70
2023/01/29 10:38:22;;;;;;;55.17;39.30;;;5.10;99.90;;;;;;5102372;28;20112;-70
2023/01/29 10:41:06;;;;;;;53.35;41.53;;;5.10;99.90;;;;;;5109888;28;20554;-70
2023/01/29 10:43:52;;;;;;;57.53;40.15;;;5.10;99.90;;;;;;5095914;28;20427;-70
2023/01/29 10:46:20;;;;;;;51.22;40.30;;;5.10;99.90;;;;;;5090725;28;20501;-71
2023/01/29 10:49:05;;;;;;;;;;;5.10;99.90;;;;;;5089651;28;20043;-72
2023/01/29 10:51:33;;;;;;;61.03;43.08;;;5.10;99.90;;;;;;5095156;28;19923;-71
2023/01/29 10:54:09;;;;;;;;;;;5.10;99.90;;;;;;5102701;28;20051;-71
2023/01/29 10:57:11;;;;;;;57.17;41.33;;;5.10;99.90;;;;;;5109437;28;19927;-71
2023/01/29 10:59:55;;;;;;;49.92;39.90;;;5.10;99.90;;;;;;5089986;28;20043;-71
2023/01/29 11:02:21;;;;;;;56.42;41.17;;;5.10;99.90;;;;;;5105122;28;20046;-70
2023/01/29 11:04:47;;;;;;;56.55;41.15;;;5.10;99.90;;;;;;5100698;28;20035;-70
2023/01/29 11:07:17;;;;;;;61.97;44.40;;;5.10;99.90;;;;;;5098663;28;20055;-70
2023/01/29 11:10:07;;;;;;;52.22;40.20;;;5.10;99.90;;;;;;5104822;28;20054;-71
2023/01/29 11:12:35;;;;;;;51.17;39.38;;;5.10;99.90;;;;;;5103012;28;20047;-70
2023/01/29 11:15:15;;;;;;;56.47;42.17;;;5.00;99.90;;;;;;5101210;28;20078;-70
2023/01/29 11:18:12;;;;;;;52.05;38.55;;;5.00;99.90;;;;;;5106686;28;20043;-70
2023/01/29 11:20:43;;;;;;;51.20;40.60;;;5.10;99.90;;;;;;5108013;28;20039;-70
2023/01/29 11:23:30;;;;;;;54.13;41.67;;;5.00;99.90;;;;;;5101306;28;20109;-70
2023/01/29 11:25:58;;;;;;;58.92;42.35;;;5.10;99.90;;;;;;5101783;28;20043;-70
2023/01/29 11:28:41;;;;;;;55.65;41.75;;;5.10;99.90;;;;;;5105749;28;20043;-70
2023/01/29 11:31:24;;;;;;;60.42;41.22;;;5.10;99.90;;;;;;5088998;28;20112;-70
2023/01/29 11:33:59;;;;;;;60.13;40.20;;;5.10;99.90;;;;;;5101571;28;20087;-70
2023/01/29 11:36:37;;;;;;;60.60;43.28;;;5.10;99.90;;;;;;5097607;28;20515;-70
2023/01/29 11:39:20;;;;;;;65.22;44.53;;;5.00;99.90;;;;;;5074285;28;20047;-71
2023/01/29 11:41:59;;;;;;;63.05;44.28;;;5.10;99.90;;;;;;5098103;28;20132;-70
2023/01/29 11:44:31;;;;;;;66.28;45.38;;;5.10;99.90;;;;;;5087326;28;20721;-70
2023/01/29 11:47:15;;;;;;;62.42;43.95;;;5.10;99.90;;;;;;5100051;28;20105;-70
2023/01/29 11:49:59;;;;;;;55.03;42.13;;;5.10;99.90;;;;;;5099700;28;20040;-71
2023/01/29 11:52:37;;;;;;;76.03;44.45;;;5.10;99.90;;;;;;5093284;28;20055;-70
2023/01/29 11:55:17;;;;;;;64.28;44.15;;;5.10;99.90;;;;;;5101358;28;20056;-70
2023/01/29 11:57:48;;;;;;;64.75;44.42;;;5.10;99.90;;;;;;5097937;28;20047;-70
2023/01/29 12:00:23;;;;;;;65.40;44.72;;;5.10;99.90;;;;;;5097609;28;20056;-70
2023/01/29 12:03:19;;;;;;;61.33;45.13;;;5.10;99.90;;;;;;5107426;28;20035;-70
2023/01/29 12:06:04;;;;;;;60.17;43.97;;;5.00;99.90;;;;;;5102487;28;20123;-70
2023/01/29 12:08:38;;;;;;;60.60;44.05;;;5.00;99.90;;;;;;5096756;28;20923;-70
2023/01/29 12:11:34;;;;;;;61.33;46.33;;;5.00;99.90;;;;;;5090466;28;20444;-70
2023/01/29 12:14:14;;;;;;;56.10;43.72;;;5.00;99.90;;;;;;5092117;28;20063;-70
2023/01/29 12:16:58;;;;;;;63.55;44.42;;;5.00;99.90;;;;;;5091734;28;20079;-70
2023/01/29 12:19:41;;;;;;;67.10;46.63;;;5.00;99.90;;;;;;5100001;28;20048;-70
2023/01/29 12:22:46;;;;;;;68.10;46.88;;;5.00;99.90;;;;;;5101077;28;20047;-71
2023/01/29 12:25:20;;;;;;;59.72;45.63;;;5.00;99.90;;;;;;5057153;28;20060;-70
2023/01/29 12:28:01;;;;;;;62.75;46.85;;;5.00;99.90;;;;;;5091448;28;20051;-70
2023/01/29 12:30:50;;;;;;;64.03;45.35;;;5.00;99.90;;;;;;5084631;28;20056;-70
2023/01/29 12:33:45;;;;;;;82.50;46.92;;;5.00;99.90;;;;;;5086656;28;20048;-70
2023/01/29 12:36:43;;;;;;;71.93;48.40;;;5.00;99.90;;;;;;5062466;28;20068;-70
2023/01/29 12:39:15;;;;;;;68.47;46.75;;;5.00;99.90;;;;;;5052490;28;20571;-70
2023/01/29 12:41:56;;;;;;;61.17;43.63;;;5.10;99.90;;;;;;5059059;28;20048;-70
2023/01/29 12:44:28;;;;;;;59.10;42.35;;;5.10;99.90;;;;;;5056782;28;20070;-70
2023/01/29 12:46:57;;;;;;;57.17;41.33;;;5.10;99.90;;;;;;5056927;28;20044;-70
2023/01/29 12:49:29;;;;;;;61.22;45.03;;;5.20;99.90;;;;;;5062007;28;20432;-70
2023/01/29 12:52:14;;;;;;;52.45;41.25;;;5.20;99.90;;;;;;5054989;28;20041;-70
2023/01/29 12:54:49;;;;;;;50.17;37.47;;;5.20;99.90;;;;;;5052087;28;20727;-70
2023/01/29 12:57:33;;;;;;;55.20;37.47;;;5.30;99.90;;;;;;5063592;28;20036;-70
2023/01/29 13:00:08;;;;;;;52.35;38.58;;;5.30;99.90;;;;;;5057180;28;20040;-70
2023/01/29 13:02:44;;;;;;;51.80;38.35;;;5.30;99.90;;;;;;5055480;28;20041;-70
2023/01/29 13:05:33;;;;;;;48.25;35.90;;;5.40;99.90;;;;;;5057136;28;20059;-70
2023/01/29 13:08:12;;;;;;;51.03;35.63;;;5.40;99.90;;;;;;5043258;28;20045;-71
2023/01/29 13:10:44;;;;;;;49.65;36.50;;;5.40;99.90;;;;;;5066482;28;20037;-70
2023/01/29 13:13:17;;;;;;;47.55;35.63;;;5.40;99.90;;;;;;5063065;28;20512;-70
2023/01/29 13:15:43;;;;;;;47.72;35.67;;;5.40;99.90;;;;;;5054879;28;20048;-70
2023/01/29 13:18:55;;;;;;;46.45;35.65;;;5.50;99.90;;;;;;5059421;28;20060;-70
2023/01/29 13:21:35;;;;;;;42.88;32.90;;;5.50;99.90;;;;;;5059897;28;20053;-70
2023/01/29 13:24:18;;;;;;;43.67;34.35;;;5.50;99.90;;;;;;5063805;28;20060;-70
2023/01/29 13:26:45;;;;;;;42.55;31.35;;;5.50;99.90;;;;;;5056994;28;20041;-70
2023/01/29 13:29:26;;;;;;;46.45;34.95;;;5.50;99.90;;;;;;5066629;28;20036;-70
2023/01/29 13:31:54;;;;;;;58.67;35.67;;;5.50;99.90;;;;;;5061710;28;20453;-70